Time;durP1;ratioP1;P1;durP2;ratioP2;P2;SDS_P1;SDS_P2;PMS_P1;PMS_P2;Temp;Humidity;BMP_temperature;BMP_pressure;BME280_temperature;BME280_humidity;BME280_pressure;Samples;Min_cycle;Max_cycle;Signal;HPM_P1;HPM_P2
2022/10/13 00:01:18;;;;;;;17.67;14.73;;;;;;;9.01;100.00;100024.69;6284532;22;20206;-84
2022/10/13 00:03:46;;;;;;;18.57;15.50;;;;;;;8.95;100.00;100022.00;6312992;22;20276;-84
2022/10/13 00:06:20;;;;;;;19.10;15.20;;;;;;;8.88;100.00;100021.97;6312242;22;20207;-83
2022/10/13 00:08:47;;;;;;;17.53;15.70;;;;;;;8.79;100.00;100018.66;6285503;22;20207;-83
2022/10/13 00:11:17;;;;;;;18.00;16.10;;;;;;;8.79;100.00;100026.66;6311483;22;20257;-83
2022/10/13 00:13:44;;;;;;;17.53;15.73;;;;;;;8.75;100.00;100012.06;6312284;22;20693;-83
2022/10/13 00:16:13;;;;;;;16.70;15.00;;;;;;;8.75;100.00;100019.25;6285774;22;20207;-83
2022/10/13 00:18:40;;;;;;;16.87;15.17;;;;;;;8.75;100.00;100024.59;6315879;22;20209;-84
2022/10/13 00:21:08;;;;;;;17.20;15.40;;;;;;;8.64;100.00;100017.94;6316084;22;20200;-83
2022/10/13 00:23:35;;;;;;;16.87;15.13;;;;;;;8.73;100.00;100023.94;6288750;22;20713;-83
2022/10/13 00:26:07;;;;;;;17.43;15.47;;;;;;;8.59;100.00;100019.56;6283595;22;20204;-83
2022/10/13 00:28:34;;;;;;;19.00;15.47;;;;;;;8.59;100.00;100016.88;6286372;22;20716;-82
2022/10/13 00:31:01;;;;;;;18.50;16.50;;;;;;;8.61;100.00;100012.19;6290547;22;20207;-84
2022/10/13 00:33:27;;;;;;;16.97;15.17;;;;;;;8.55;100.00;100007.63;6296782;22;20224;-85
2022/10/13 00:35:54;;;;;;;16.93;14.90;;;;;;;8.53;100.00;99999.00;6298049;22;20194;-83
2022/10/13 00:38:22;;;;;;;16.53;14.90;;;;;;;8.52;100.00;100005.34;6293994;22;20230;-83
2022/10/13 00:40:53;;;;;;;18.40;14.60;;;;;;;8.52;100.00;100000.00;6291768;22;20536;-83
2022/10/13 00:43:25;;;;;;;16.67;14.87;;;;;;;8.51;100.00;100003.69;6290320;22;20246;-83
2022/10/13 00:45:53;;;;;;;16.77;14.87;;;;;;;8.42;100.00;99995.03;6294712;22;20211;-84
2022/10/13 00:48:27;;;;;;;16.30;14.47;;;;;;;8.40;100.00;99992.56;6259231;22;20699;-83
2022/10/13 00:50:55;;;;;;;16.13;14.53;;;;;;;8.47;100.00;100005.94;6293500;22;20230;-84
2022/10/13 00:53:23;;;;;;;17.03;15.20;;;;;;;8.46;100.00;99998.13;6290989;22;20719;-83
2022/10/13 00:55:51;;;;;;;15.50;13.90;;;;;;;8.44;100.00;99992.19;6284671;22;20231;-83
2022/10/13 00:58:21;;;;;;;16.20;14.63;;;;;;;8.45;100.00;99997.28;6285017;22;20211;-83
2022/10/13 01:00:50;;;;;;;17.07;14.97;;;;;;;8.41;100.00;99993.38;6282298;22;20250;-82
2022/10/13 01:03:20;;;;;;;17.27;15.57;;;;;;;8.43;100.00;100003.88;6278650;22;20222;-82
2022/10/13 01:05:47;;;;;;;17.33;15.23;;;;;;;8.35;100.00;100003.00;6280069;22;20200;-82
2022/10/13 01:08:14;;;;;;;18.07;15.50;;;;;;;8.37;100.00;99995.63;6277700;22;20656;-82
2022/10/13 01:10:46;;;;;;;16.87;15.17;;;;;;;8.35;100.00;99996.84;6278667;22;20253;-82
2022/10/13 01:13:33;;;;;;;16.73;14.80;;;;;;;8.30;100.00;99992.09;6279608;22;20214;-82
2022/10/13 01:16:31;;;;;;;17.50;15.67;;;;;;;8.30;100.00;99994.78;6277401;22;20214;-81
2022/10/13 01:19:16;;;;;;;16.57;14.77;;;;;;;8.27;100.00;99997.78;6280689;22;20207;-82
2022/10/13 01:21:46;;;;;;;16.37;14.67;;;;;;;8.25;100.00;99991.84;6280556;22;20208;-83
2022/10/13 01:24:27;;;;;;;17.03;15.23;;;;;;;8.17;100.00;99981.28;6280533;22;20265;-82
2022/10/13 01:27:03;;;;;;;19.27;15.53;;;;;;;8.18;100.00;99988.28;6278361;22;20275;-82
2022/10/13 01:29:41;;;;;;;17.13;15.03;;;;;;;8.21;100.00;99990.53;6253392;22;20210;-82
2022/10/13 01:32:29;;;;;;;16.07;14.43;;;;;;;8.16;100.00;99986.84;6280023;22;20204;-83
2022/10/13 01:35:06;;;;;;;16.90;15.20;;;;;;;8.13;100.00;99985.38;6279272;22;20200;-82
2022/10/13 01:37:38;;;;;;;17.93;14.70;;;;;;;8.08;100.00;99985.13;6281150;22;20211;-82
2022/10/13 01:40:47;;;;;;;16.37;14.67;;;;;;;8.07;100.00;99980.00;6281022;22;20204;-82
2022/10/13 01:43:21;;;;;;;17.63;13.87;;;;;;;7.99;100.00;99967.63;6213980;22;20208;-82
2022/10/13 01:46:11;;;;;;;15.50;13.90;;;;;;;7.95;100.00;99979.69;6282711;22;20251;-82
2022/10/13 01:48:39;;;;;;;15.87;14.17;;;;;;;7.94;100.00;99978.03;6282023;22;20226;-83
2022/10/13 01:51:09;;;;;;;16.07;14.33;;;;;;;7.93;100.00;99971.09;6281565;22;20204;-83
2022/10/13 01:53:35;;;;;;;17.67;14.60;;;;;;;7.89;100.00;99965.28;6283521;22;20204;-83
2022/10/13 01:56:02;;;;;;;15.77;14.17;;;;;;;7.85;100.00;99968.53;6277928;22;20545;-81
2022/10/13 01:58:32;;;;;;;18.20;14.60;;;;;;;7.89;100.00;99970.63;6276130;22;20223;-81
2022/10/13 02:01:14;;;;;;;15.80;14.20;;;;;;;7.86;100.00;99971.03;6274680;22;20207;-81
2022/10/13 02:03:52;;;;;;;18.23;15.27;;;;;;;7.81;100.00;99973.44;6274802;22;20526;-82
2022/10/13 02:06:57;;;;;;;16.20;14.53;;;;;;;7.83;100.00;99975.91;6275626;22;20207;-82
2022/10/13 02:09:30;;;;;;;15.83;14.23;;;;;;;7.75;100.00;99963.53;6283483;22;20585;-83
2022/10/13 02:12:09;;;;;;;17.07;14.73;;;;;;;7.70;100.00;99965.94;6285474;22;20204;-82
2022/10/13 02:14:39;;;;;;;16.80;15.07;;;;;;;7.74;100.00;99967.25;6282355;22;20195;-82
2022/10/13 02:17:06;;;;;;;16.07;14.40;;;;;;;7.66;100.00;99967.34;6283576;22;20204;-83
2022/10/13 02:19:37;;;;;;;16.87;15.07;;;;;;;7.66;100.00;99969.19;6283716;22;20234;-83
2022/10/13 02:22:05;;;;;;;17.10;15.40;;;;;;;7.64;100.00;99964.06;6281454;22;20207;-82
2022/10/13 02:24:32;;;;;;;17.50;15.60;;;;;;;7.63;100.00;99969.59;6281477;22;20207;-82
2022/10/13 02:26:58;;;;;;;17.10;15.20;;;;;;;7.62;100.00;99973.28;6252867;22;20241;-82
2022/10/13 02:29:25;;;;;;;17.53;15.20;;;;;;;7.61;100.00;99967.09;6277828;22;20211;-83
2022/10/13 02:31:53;;;;;;;16.77;15.03;;;;;;;7.62;100.00;99970.59;6279639;22;20310;-83
2022/10/13 02:34:20;;;;;;;17.53;15.40;;;;;;;7.55;100.00;99972.41;6276356;22;20211;-82
2022/10/13 02:36:47;;;;;;;19.70;16.23;;;;;;;7.51;100.00;99966.63;6274396;22;20204;-81
2022/10/13 02:39:13;;;;;;;17.97;15.80;;;;;;;7.54;100.00;99974.25;6274764;22;20210;-81
2022/10/13 02:41:40;;;;;;;17.83;16.03;;;;;;;7.53;100.00;99961.91;6274418;22;20262;-81
2022/10/13 02:44:06;;;;;;;16.90;15.07;;;;;;;7.49;100.00;99966.00;6274195;22;20216;-81
2022/10/13 02:46:39;;;;;;;19.37;15.73;;;;;;;7.47;100.00;99960.84;6274426;22;20893;-81
2022/10/13 02:49:06;;;;;;;16.07;14.37;;;;;;;7.43;100.00;99964.06;6274902;22;20184;-81
2022/10/13 02:51:32;;;;;;;17.03;14.97;;;;;;;7.39;100.00;99968.97;6275259;22;20212;-82
2022/10/13 02:54:05;;;;;;;16.77;15.00;;;;;;;7.41;100.00;99964.28;6278164;22;20207;-81
2022/10/13 02:56:32;;;;;;;18.37;15.07;;;;;;;7.46;100.00;99958.38;6279294;22;20207;-82
2022/10/13 02:58:58;;;;;;;17.57;15.60;;;;;;;7.47;100.00;99963.50;6276663;22;20210;-82
2022/10/13 03:01:25;;;;;;;18.50;15.77;;;;;;;7.52;100.00;99965.59;6278608;22;20204;-83
2022/10/13 03:03:51;;;;;;;17.27;15.27;;;;;;;7.49;100.00;99966.00;6277689;22;20230;-82
2022/10/13 03:06:18;;;;;;;17.20;15.50;;;;;;;7.49;100.00;99960.66;6276351;22;20207;-82
2022/10/13 03:08:44;;;;;;;16.53;14.77;;;;;;;7.49;100.00;99966.81;6274671;22;20195;-82
2022/10/13 03:11:11;;;;;;;17.30;15.60;;;;;;;7.54;100.00;99963.56;6274921;22;20680;-81
2022/10/13 03:13:38;;;;;;;17.33;15.53;;;;;;;7.55;100.00;99970.56;6276366;22;20208;-82
2022/10/13 03:16:05;;;;;;;17.67;15.77;;;;;;;7.56;100.00;99972.19;6276603;22;20236;-81
2022/10/13 03:18:31;;;;;;;17.47;15.67;;;;;;;7.62;100.00;99987.44;6275570;22;20261;-82
2022/10/13 03:21:03;;;;;;;18.10;16.10;;;;;;;7.67;100.00;99974.34;6277332;22;20241;-82
2022/10/13 03:23:30;;;;;;;17.97;16.07;;;;;;;7.70;100.00;99971.28;6249681;22;20228;-82
2022/10/13 03:25:57;;;;;;;17.83;15.93;;;;;;;7.77;100.00;99974.84;6285294;22;20215;-81
2022/10/13 03:28:23;;;;;;;18.03;16.23;;;;;;;7.82;100.00;99967.09;6307499;22;20199;-82
2022/10/13 03:30:59;;;;;;;18.23;16.27;;;;;;;7.91;100.00;99976.59;6307535;22;20223;-82
2022/10/13 03:33:26;;;;;;;19.30;16.40;;;;;;;7.93;100.00;99963.88;6280666;22;20207;-82
2022/10/13 03:36:02;;;;;;;18.50;16.50;;;;;;;7.97;100.00;99965.16;6307569;22;20207;-82
2022/10/13 03:38:30;;;;;;;18.73;16.83;;;;;;;8.04;100.00;99967.84;6281513;22;20206;-82
2022/10/13 03:40:56;;;;;;;19.17;17.10;;;;;;;8.07;100.00;99959.44;6256238;22;20602;-82
2022/10/13 03:43:24;;;;;;;18.67;16.63;;;;;;;8.14;100.00;99967.50;6309462;22;20175;-82
2022/10/13 03:45:57;;;;;;;18.67;16.77;;;;;;;8.23;100.00;99969.84;6308492;22;20752;-82
2022/10/13 03:48:25;;;;;;;18.63;16.73;;;;;;;8.29;100.00;99968.22;6307312;22;20199;-82
2022/10/13 03:50:51;;;;;;;19.87;17.27;;;;;;;8.33;100.00;99964.19;6280606;22;20208;-82
2022/10/13 03:53:18;;;;;;;19.03;17.03;;;;;;;8.38;100.00;99970.56;6305748;22;20211;-83
2022/10/13 03:55:53;;;;;;;20.40;17.13;;;;;;;8.41;100.00;99956.00;6308020;22;20211;-82
2022/10/13 03:58:22;;;;;;;20.33;17.23;;;;;;;8.47;100.00;99973.06;6280060;22;20282;-83
2022/10/13 04:00:51;;;;;;;19.43;17.17;;;;;;;8.54;100.00;99961.41;6307328;22;20207;-81
2022/10/13 04:03:18;;;;;;;19.63;16.97;;;;;;;8.57;100.00;99960.19;6305834;22;20215;-82
2022/10/13 04:05:45;;;;;;;19.07;16.47;;;;;;;8.67;100.00;99966.81;6307292;22;20206;-82
2022/10/13 04:08:12;;;;;;;18.13;16.20;;;;;;;8.69;100.00;99962.09;6306061;22;20219;-81
2022/10/13 04:10:39;;;;;;;20.30;17.07;;;;;;;8.70;100.00;99954.91;6306289;22;20199;-82
2022/10/13 04:13:06;;;;;;;19.47;17.37;;;;;;;8.77;100.00;99961.09;6278897;22;20214;-82
2022/10/13 04:15:39;;;;;;;21.00;17.53;;;;;;;8.83;100.00;99965.63;6306789;22;20207;-82
2022/10/13 04:18:07;;;;;;;20.33;17.63;;;;;;;8.85;100.00;99960.94;6279676;22;20246;-83
2022/10/13 04:20:36;;;;;;;18.10;16.30;;;;;;;8.86;100.00;99961.75;6307454;22;20237;-82
2022/10/13 04:23:03;;;;;;;19.87;17.80;;;;;;;8.88;100.00;99963.19;6281407;22;20208;-82
2022/10/13 04:25:29;;;;;;;19.57;17.07;;;;;;;8.91;100.00;99965.47;6307173;22;20203;-83
2022/10/13 04:27:56;;;;;;;19.03;17.03;;;;;;;8.94;100.00;99954.38;6306222;22;20717;-82
2022/10/13 04:30:24;;;;;;;18.90;16.90;;;;;;;8.96;100.00;99954.19;6307813;22;20659;-83
2022/10/13 04:32:50;;;;;;;20.03;16.90;;;;;;;9.03;100.00;99958.50;6307389;22;20203;-83
2022/10/13 04:35:17;;;;;;;19.53;17.53;;;;;;;9.07;100.00;99959.75;6307610;22;20211;-82
2022/10/13 04:37:44;;;;;;;18.87;16.73;;;;;;;9.06;100.00;99952.75;6307615;22;20203;-83
2022/10/13 04:40:11;;;;;;;19.80;17.27;;;;;;;9.10;100.00;99959.34;6291035;22;20275;-83
2022/10/13 04:42:37;;;;;;;19.33;17.30;;;;;;;9.13;100.00;99961.63;6308358;22;20228;-82
2022/10/13 04:45:04;;;;;;;19.63;17.37;;;;;;;9.17;100.00;99964.72;6307285;22;20215;-83
2022/10/13 04:47:32;;;;;;;19.93;17.87;;;;;;;9.22;100.00;99962.25;6307214;22;20261;-82
2022/10/13 04:50:03;;;;;;;48.77;36.70;;;;;;;9.25;100.00;99951.16;6280205;22;20191;-83
2022/10/13 04:52:29;;;;;;;153.30;101.67;;;;;;;9.29;100.00;99966.59;6306523;22;20257;-82
2022/10/13 04:54:56;;;;;;;69.97;50.43;;;;;;;9.33;100.00;99960.84;6306369;22;20207;-82
2022/10/13 04:57:23;;;;;;;32.47;27.83;;;;;;;9.35;100.00;99964.94;6306320;22;20207;-83
2022/10/13 04:59:49;;;;;;;24.30;20.47;;;;;;;9.40;100.00;99969.69;6305967;22;20230;-83
2022/10/13 05:02:16;;;;;;;20.43;18.23;;;;;;;9.41;100.00;99969.50;6305385;22;20249;-83
2022/10/13 05:04:43;;;;;;;21.60;18.57;;;;;;;9.47;100.00;99968.66;6305982;22;20261;-83
2022/10/13 05:07:10;;;;;;;19.20;17.20;;;;;;;9.47;100.00;99976.69;6278509;22;20211;-82
2022/10/13 05:09:44;;;;;;;20.70;17.73;;;;;;;9.54;100.00;99974.03;6305612;22;20206;-82
2022/10/13 05:12:11;;;;;;;19.57;17.47;;;;;;;9.57;100.00;99976.28;6305315;22;20214;-82
2022/10/13 05:14:38;;;;;;;18.30;16.40;;;;;;;9.60;100.00;99982.06;6305366;22;20504;-83
2022/10/13 05:17:06;;;;;;;18.93;16.93;;;;;;;9.62;100.00;99979.16;6305133;22;20207;-83
2022/10/13 05:19:33;;;;;;;19.57;17.47;;;;;;;9.65;100.00;99973.44;6305211;22;20611;-83
2022/10/13 05:21:59;;;;;;;20.97;16.83;;;;;;;9.69;100.00;99975.50;6278326;22;20207;-82
2022/10/13 05:24:35;;;;;;;19.93;17.83;;;;;;;9.77;100.00;99976.28;6305017;22;20199;-84
2022/10/13 05:27:11;;;;;;;19.43;17.43;;;;;;;9.80;100.00;99975.91;6272944;22;20258;-82
2022/10/13 05:29:38;;;;;;;18.83;16.90;;;;;;;9.83;100.00;99978.16;6273251;22;20215;-83
2022/10/13 05:32:05;;;;;;;19.03;17.00;;;;;;;9.82;100.00;99974.66;6273897;22;20207;-83
2022/10/13 05:34:31;;;;;;;19.20;17.30;;;;;;;9.86;100.00;99975.06;6274117;22;20208;-83
2022/10/13 05:36:59;;;;;;;19.37;17.37;;;;;;;9.92;100.00;99977.75;6274623;22;20199;-84
2022/10/13 05:39:26;;;;;;;19.33;17.27;;;;;;;9.94;100.00;99970.31;6274486;22;20200;-84
2022/10/13 05:41:52;;;;;;;19.53;17.53;;;;;;;9.94;100.00;99974.84;6274744;22;20668;-83
2022/10/13 05:44:20;;;;;;;19.30;17.30;;;;;;;9.96;100.00;99981.66;6258908;22;20208;-83
2022/10/13 05:46:53;;;;;;;20.00;17.80;;;;;;;10.02;100.00;99983.50;6294068;22;20207;-83
2022/10/13 05:49:20;;;;;;;20.17;18.07;;;;;;;10.07;100.00;99981.03;6274127;22;20211;-83
2022/10/13 05:51:50;;;;;;;19.13;17.13;;;;;;;10.14;100.00;99983.69;6274461;22;20273;-83
2022/10/13 05:54:25;;;;;;;20.73;17.17;;;;;;;10.20;100.00;99988.25;6272449;22;20208;-82
2022/10/13 05:56:59;;;;;;;18.93;16.80;;;;;;;10.27;100.00;99994.41;6272617;22;20206;-82
2022/10/13 05:59:29;;;;;;;19.47;16.90;;;;;;;10.33;100.00;99985.53;6274272;22;20222;-84
2022/10/13 06:01:55;;;;;;;19.67;17.67;;;;;;;10.36;100.00;99985.13;6272402;22;20219;-85
2022/10/13 06:04:34;;;;;;;20.00;17.40;;;;;;;10.44;100.00;99989.44;6273791;22;20208;-84
2022/10/13 06:07:01;;;;;;;19.00;17.10;;;;;;;10.44;100.00;99989.44;6273064;22;20200;-85
2022/10/13 06:09:33;;;;;;;19.03;17.03;;;;;;;10.52;100.00;99992.72;6272457;22;20234;-86
2022/10/13 06:12:00;;;;;;;18.13;16.20;;;;;;;10.59;100.00;99996.19;6273431;22;20215;-84
2022/10/13 06:14:26;;;;;;;18.13;16.30;;;;;;;10.70;100.00;100007.28;6273846;22;20644;-85
2022/10/13 06:16:53;;;;;;;18.53;16.57;;;;;;;10.78;100.00;99989.09;6274151;22;20203;-87
2022/10/13 06:19:19;;;;;;;18.97;17.00;;;;;;;10.85;100.00;99994.47;6274140;22;20200;-86
2022/10/13 06:21:46;;;;;;;19.97;16.13;;;;;;;10.85;100.00;99997.97;6274438;22;20208;-85
2022/10/13 06:24:12;;;;;;;17.77;16.03;;;;;;;10.86;100.00;99996.94;6272849;22;20216;-84
2022/10/13 06:26:39;;;;;;;17.77;16.07;;;;;;;10.92;100.00;99996.06;6271918;22;20214;-85
2022/10/13 06:29:06;;;;;;;19.47;16.97;;;;;;;10.94;100.00;100001.22;6273904;22;20212;-84
2022/10/13 06:31:32;;;;;;;18.07;16.17;;;;;;;10.94;100.00;100003.91;6274270;22;20755;-84
2022/10/13 06:33:59;;;;;;;18.80;16.67;;;;;;;10.99;100.00;100002.22;6274134;22;20660;-84
2022/10/13 06:36:26;;;;;;;17.67;15.83;;;;;;;11.06;100.00;99998.72;6272172;22;20664;-84
2022/10/13 06:38:53;;;;;;;18.53;16.57;;;;;;;11.17;100.00;99998.00;6272281;22;20211;-86
2022/10/13 06:41:19;;;;;;;17.17;15.33;;;;;;;11.21;100.00;99994.69;6273579;22;20204;-85
2022/10/13 06:43:46;;;;;;;18.93;16.20;;;;;;;11.28;100.00;99994.66;6273752;22;20212;-85
2022/10/13 06:46:15;;;;;;;18.70;16.70;;;;;;;11.38;100.00;99995.03;6272519;22;20230;-90
2022/10/13 06:48:42;;;;;;;19.33;16.90;;;;;;;11.49;100.00;99995.13;6272830;22;20203;-88
2022/10/13 06:51:10;;;;;;;18.10;16.20;;;;;;;11.59;100.00;99991.16;6272844;22;20235;-89
2022/10/13 06:53:36;;;;;;;18.60;16.70;;;;;;;11.70;100.00;99999.34;6247442;22;20200;-89
2022/10/13 06:56:05;;;;;;;18.87;16.87;;;;;;;11.82;100.00;99994.09;6272027;22;20564;-89
2022/10/13 06:58:33;;;;;;;19.90;16.63;;;;;;;11.96;100.00;100001.00;6272784;22;20208;-89
2022/10/13 07:00:59;;;;;;;18.20;16.40;;;;;;;12.12;100.00;100005.03;6272684;22;20641;-89
2022/10/13 07:03:26;;;;;;;17.90;16.20;;;;;;;12.24;100.00;99998.69;6274195;22;20664;-89
2022/10/13 07:05:53;;;;;;;18.37;16.47;;;;;;;12.39;100.00;100006.41;6273942;22;20270;-89
2022/10/13 07:08:20;;;;;;;18.90;17.07;;;;;;;12.52;100.00;100003.56;6246691;22;20262;-89
2022/10/13 07:10:47;;;;;;;19.80;17.17;;;;;;;12.63;100.00;100002.84;6273120;22;20208;-91
2022/10/13 07:13:14;;;;;;;21.40;17.63;;;;;;;12.80;100.00;100003.88;6247858;22;20209;-90
2022/10/13 07:15:40;;;;;;;22.47;18.07;;;;;;;12.84;100.00;99995.34;6275330;22;20229;-90
2022/10/13 07:18:07;;;;;;;22.03;17.50;;;;;;;12.80;100.00;100001.19;6275154;22;20202;-91
2022/10/13 07:20:34;;;;;;;24.13;18.97;;;;;;;12.86;100.00;99987.91;6248013;22;20216;-90
2022/10/13 07:23:01;;;;;;;23.33;20.07;;;;;;;12.90;100.00;99994.47;6248291;22;20215;-90
2022/10/13 07:25:28;;;;;;;21.97;19.53;;;;;;;13.00;100.00;99984.81;6250856;22;20215;-91
2022/10/13 07:27:54;;;;;;;25.77;19.73;;;;;;;13.09;100.00;99986.16;6253557;22;20230;-90
2022/10/13 07:30:21;;;;;;;23.07;20.47;;;;;;;13.27;100.00;99990.69;6278591;22;20214;-88
2022/10/13 07:32:48;;;;;;;24.33;20.57;;;;;;;13.45;100.00;99987.13;6253509;22;20219;-90
2022/10/13 07:35:15;;;;;;;26.77;19.57;;;;;;;13.62;100.00;99986.22;6252935;22;20206;-90
2022/10/13 07:37:42;;;;;;;27.43;20.07;;;;;;;13.75;100.00;99987.91;6278352;22;20214;-89
2022/10/13 07:40:09;;;;;;;27.57;21.23;;;;;;;13.79;100.00;99981.00;6278108;22;20216;-89
2022/10/13 07:42:36;;;;;;;23.03;19.17;;;;;;;13.89;100.00;99981.25;6253244;22;20209;-90
2022/10/13 07:45:03;;;;;;;21.77;18.83;;;;;;;13.98;100.00;99981.72;6278467;22;20229;-90
2022/10/13 07:47:29;;;;;;;22.20;19.03;;;;;;;14.09;100.00;99976.34;6278905;22;20216;-90
2022/10/13 07:49:56;;;;;;;21.53;18.37;;;;;;;14.17;100.00;99977.06;6305656;22;20210;-90
2022/10/13 07:52:23;;;;;;;23.33;19.03;;;;;;;14.22;100.00;99978.00;6305213;22;20199;-89
2022/10/13 07:54:49;;;;;;;24.20;19.77;;;;;;;14.30;100.00;99974.13;6278469;22;20710;-90
2022/10/13 07:57:16;;;;;;;26.50;20.17;;;;;;;14.36;100.00;99974.03;6253880;22;20211;-89
2022/10/13 07:59:43;;;;;;;24.57;20.63;;;;;;;14.16;100.00;99981.63;6254789;22;20204;-90
2022/10/13 08:02:11;;;;;;;25.73;19.30;;;;;;;14.23;100.00;99968.03;6256109;22;20610;-90
2022/10/13 08:04:38;;;;;;;25.33;20.30;;;;;;;14.37;100.00;99972.97;6255351;22;20199;-92
2022/10/13 08:07:05;;;;;;;23.90;20.50;;;;;;;14.57;100.00;99972.59;6229588;22;20297;-90
2022/10/13 08:09:32;;;;;;;24.83;19.87;;;;;;;14.64;100.00;99976.00;6254925;22;20206;-90
2022/10/13 08:11:59;;;;;;;27.57;21.07;;;;;;;14.68;100.00;99971.75;6280402;22;20206;-92
2022/10/13 08:14:28;;;;;;;27.03;20.77;;;;;;;14.74;100.00;99970.81;6255668;22;20249;-89
2022/10/13 08:16:56;;;;;;;27.10;21.33;;;;;;;14.83;100.00;99974.78;6280458;22;20275;-90
2022/10/13 08:19:25;;;;;;;23.67;20.57;;;;;;;14.94;100.00;99971.22;6254936;22;20260;-90
2022/10/13 08:21:52;;;;;;;27.83;21.57;;;;;;;14.97;100.00;99976.16;6264582;22;20204;-86
2022/10/13 08:24:24;;;;;;;24.77;21.17;;;;;;;15.04;100.00;99975.16;6306469;22;20639;-87
2022/10/13 08:26:50;;;;;;;29.40;21.83;;;;;;;15.01;100.00;99971.09;6274015;22;20219;-83
2022/10/13 08:29:17;;;;;;;28.20;21.33;;;;;;;14.98;100.00;99975.06;6274012;22;20706;-88
2022/10/13 08:31:53;;;;;;;28.20;21.47;;;;;;;14.98;100.00;99969.66;6248628;22;20208;-88
2022/10/13 08:34:22;;;;;;;26.27;21.00;;;;;;;15.14;100.00;99970.78;6249135;22;20211;-92
2022/10/13 08:36:52;;;;;;;26.20;21.13;;;;;;;15.27;100.00;99978.59;6250370;22;20216;-93
2022/10/13 08:39:20;;;;;;;32.13;23.30;;;;;;;15.38;100.00;99966.94;6251071;22;20208;-93
2022/10/13 08:41:47;;;;;;;30.30;23.33;;;;;;;15.46;100.00;99968.41;6250566;22;20208;-92
2022/10/13 08:44:32;;;;;;;27.40;22.73;;;;;;;15.59;100.00;99967.31;6250163;22;20200;-89
2022/10/13 08:47:36;;;;;;;28.70;22.90;;;;;;;15.76;100.00;99976.25;6275331;22;20287;-92
2022/10/13 08:50:09;;;;;;;33.33;24.67;;;;;;;15.49;100.00;99967.13;6249702;22;20211;-91
2022/10/13 08:52:49;;;;;;;32.87;25.33;;;;;;;15.39;100.00;99973.16;6276716;22;20233;-91
2022/10/13 08:55:28;;;;;;;38.53;26.07;;;;;;;15.39;100.00;99978.56;6251014;22;20231;-93
2022/10/13 08:57:55;;;;;;;34.07;24.73;;;;;;;15.66;100.00;99976.91;6251871;22;20192;-93
2022/10/13 09:00:25;;;;;;;38.83;26.37;;;;;;;15.58;100.00;99979.19;6250759;22;20200;-93
2022/10/13 09:02:51;;;;;;;44.87;28.30;;;;;;;15.53;100.00;99973.69;6250405;22;20279;-91
2022/10/13 09:05:31;;;;;;;49.47;30.07;;;;;;;15.28;100.00;99974.00;6249240;22;20200;-90
2022/10/13 09:08:04;;;;;;;53.47;30.60;;;;;;;14.85;100.00;99967.25;6248765;22;20519;-90
2022/10/13 09:10:30;;;;;;;51.60;31.23;;;;;;;15.02;100.00;99969.22;6275200;22;20211;-89
2022/10/13 09:12:59;;;;;;;53.50;30.87;;;;;;;15.36;100.00;99970.91;6225451;22;20207;-94
2022/10/13 09:15:26;;;;;;;69.97;33.87;;;;;;;15.45;100.00;99966.75;6250904;22;20243;-91
2022/10/13 09:18:11;;;;;;;61.80;32.43;;;;;;;15.69;100.00;99973.69;6225853;22;20230;-91
2022/10/13 09:20:39;;;;;;;56.07;31.97;;;;;;;15.82;100.00;99967.16;6249626;22;20717;-87
2022/10/13 09:23:17;;;;;;;53.40;32.73;;;;;;;16.10;100.00;99974.34;6273120;22;20208;-87
2022/10/13 09:25:49;;;;;;;54.43;33.43;;;;;;;16.29;100.00;99963.03;6273084;22;20235;-87
2022/10/13 09:28:26;;;;;;;58.93;35.33;;;;;;;16.27;100.00;99972.47;6272477;22;20204;-87
2022/10/13 09:31:19;;;;;;;56.53;34.23;;;;;;;16.47;100.00;99969.22;6273350;22;20282;-86
2022/10/13 09:33:56;;;;;;;61.90;33.73;;;;;;;16.52;100.00;99966.56;6247706;22;20208;-87
2022/10/13 09:36:23;;;;;;;58.77;33.87;;;;;;;16.66;100.00;99965.16;6273711;22;20270;-87
2022/10/13 09:39:13;;;;;;;58.13;33.77;;;;;;;16.87;100.00;99963.53;6247952;22;20196;-87
2022/10/13 09:41:42;;;;;;;54.53;32.67;;;;;;;16.86;100.00;99960.00;6273540;22;20221;-86
2022/10/13 09:44:12;;;;;;;56.93;31.50;;;;;;;16.40;100.00;99971.28;6272818;22;20235;-88
2022/10/13 09:46:45;;;;;;;52.43;32.57;;;;;;;16.06;100.00;99971.31;6273457;22;20227;-86
2022/10/13 09:49:30;;;;;;;52.73;31.90;;;;;;;16.07;100.00;99964.84;6274522;22;20212;-86
2022/10/13 09:52:11;;;;;;;50.63;30.77;;;;;;;16.50;100.00;99961.44;6274584;22;20275;-87
2022/10/13 09:54:44;;;;;;;48.30;30.60;;;;;;;16.66;100.00;99962.47;6272961;22;20196;-87
2022/10/13 09:57:12;;;;;;;55.53;32.27;;;;;;;16.81;100.00;99964.53;6274395;22;20208;-85
2022/10/13 09:59:44;;;;;;;59.60;34.20;;;;;;;16.93;100.00;99955.25;6247111;22;20204;-84
2022/10/13 10:02:40;;;;;;;51.73;32.47;;;;;;;17.14;99.78;99946.25;6265827;22;20204;-85
2022/10/13 10:05:18;;;;;;;48.40;31.50;;;;;;;17.20;96.22;99954.44;6252695;22;20204;-87
2022/10/13 10:07:47;;;;;;;48.13;30.63;;;;;;;17.22;94.07;99949.59;6271890;22;20290;-87
2022/10/13 10:10:34;;;;;;;48.77;31.30;;;;;;;17.24;93.51;99942.84;6272272;22;20562;-84
2022/10/13 10:13:09;;;;;;;50.60;31.03;;;;;;;16.95;91.06;99938.72;6226476;22;20212;-87
2022/10/13 10:15:48;;;;;;;43.30;30.50;;;;;;;16.34;100.00;99945.22;6248538;22;20539;-89
2022/10/13 10:18:35;;;;;;;43.47;30.00;;;;;;;16.21;100.00;99938.31;6274499;22;20236;-87
2022/10/13 10:21:09;;;;;;;42.67;29.73;;;;;;;16.24;100.00;99943.19;6273204;22;20264;-88
2022/10/13 10:23:48;;;;;;;46.50;30.00;;;;;;;16.15;100.00;99939.28;6273684;22;20207;-90
2022/10/13 10:26:17;;;;;;;49.63;29.70;;;;;;;16.05;100.00;99945.34;6272859;22;20262;-88
2022/10/13 10:29:05;;;;;;;46.03;30.73;;;;;;;16.22;100.00;99939.94;6274794;22;20273;-88
2022/10/13 10:31:53;;;;;;;47.27;31.17;;;;;;;16.24;100.00;99941.31;6273545;22;20740;-89
2022/10/13 10:34:36;;;;;;;51.07;31.73;;;;;;;16.14;100.00;99933.06;6273133;22;20211;-89
2022/10/13 10:37:08;;;;;;;46.97;31.07;;;;;;;16.24;100.00;99941.31;6247333;22;20282;-88
2022/10/13 10:39:39;;;;;;;48.63;30.50;;;;;;;16.71;100.00;99930.06;6273899;22;20285;-88
2022/10/13 10:42:21;;;;;;;49.23;31.77;;;;;;;16.80;97.08;99925.84;6272469;22;20220;-89
2022/10/13 10:44:50;;;;;;;47.23;30.20;;;;;;;16.61;98.18;99935.38;6275316;22;20287;-89
2022/10/13 10:47:26;;;;;;;48.53;30.37;;;;;;;16.77;100.00;99925.53;6273629;22;20246;-91
2022/10/13 10:50:01;;;;;;;48.67;31.13;;;;;;;16.92;98.68;99923.00;6247615;22;20425;-90
2022/10/13 10:52:52;;;;;;;44.93;31.17;;;;;;;16.54;100.00;99932.00;6274180;22;20204;-89
2022/10/13 10:55:28;;;;;;;40.67;29.43;;;;;;;16.60;100.00;99923.72;6275206;22;20205;-91
2022/10/13 10:58:00;;;;;;;44.63;30.37;;;;;;;16.81;100.00;99924.78;6273634;22;20290;-88
2022/10/13 11:00:26;;;;;;;42.37;29.73;;;;;;;16.82;95.42;99909.38;6273448;22;20291;-92
2022/10/13 11:03:02;;;;;;;41.80;29.97;;;;;;;16.97;98.39;99910.34;6246713;22;20207;-89
2022/10/13 11:06:01;;;;;;;43.73;28.73;;;;;;;17.22;94.57;99914.41;6273762;22;20204;-86
2022/10/13 11:08:30;;;;;;;39.53;28.90;;;;;;;17.26;94.26;99916.34;6232513;22;20242;-90
2022/10/13 11:11:35;;;;;;;37.90;27.83;;;;;;;16.87;96.85;99915.66;6272839;22;20648;-88
2022/10/13 11:14:08;;;;;;;33.97;27.03;;;;;;;17.06;96.26;99914.25;6273674;22;20282;-86
2022/10/13 11:16:58;;;;;;;38.53;27.50;;;;;;;17.20;94.44;99894.88;6273447;22;20208;-90
2022/10/13 11:19:36;;;;;;;36.17;28.77;;;;;;;17.40;91.86;99903.19;6247933;22;20595;-87
2022/10/13 11:22:02;;;;;;;36.33;27.83;;;;;;;17.62;89.30;99895.00;6272777;22;20253;-85
2022/10/13 11:24:33;;;;;;;35.13;28.10;;;;;;;17.79;86.60;99888.34;6274846;22;20291;-86
2022/10/13 11:27:14;;;;;;;35.80;28.13;;;;;;;17.87;87.25;99893.28;6272779;22;20211;-86
2022/10/13 11:29:45;;;;;;;34.53;27.90;;;;;;;18.04;84.95;99887.72;6274702;22;20214;-86